sensor_id;sensor_type;location;lat;lon;timestamp;P1;durP1;ratioP1;P2;durP2;ratioP2
63203;SDS011;49297;43.210;27.914;2023-06-19T00:02:23;16.00;;;9.30;;
63203;SDS011;49297;43.210;27.914;2023-06-19T00:04:50;11.45;;;10.35;;
63203;SDS011;49297;43.210;27.914;2023-06-19T00:07:22;10.65;;;9.07;;
63203;SDS011;49297;43.210;27.914;2023-06-19T00:09:49;9.75;;;8.68;;
63203;SDS011;49297;43.210;27.914;2023-06-19T00:12:21;10.13;;;8.75;;
63203;SDS011;49297;43.210;27.914;2023-06-19T00:14:48;9.95;;;8.95;;
63203;SDS011;49297;43.210;27.914;2023-06-19T00:17:14;11.82;;;10.02;;
63203;SDS011;49297;43.210;27.914;2023-06-19T00:19:44;13.35;;;10.50;;
63203;SDS011;49297;43.210;27.914;2023-06-19T00:22:10;11.63;;;9.90;;
63203;SDS011;49297;43.210;27.914;2023-06-19T00:24:36;11.67;;;10.47;;
63203;SDS011;49297;43.210;27.914;2023-06-19T00:27:02;12.27;;;10.57;;
63203;SDS011;49297;43.210;27.914;2023-06-19T00:29:31;11.38;;;9.65;;
63203;SDS011;49297;43.210;27.914;2023-06-19T00:31:58;12.32;;;10.25;;
63203;SDS011;49297;43.210;27.914;2023-06-19T00:34:24;13.13;;;10.40;;
63203;SDS011;49297;43.210;27.914;2023-06-19T00:36:51;12.38;;;10.35;;
63203;SDS011;49297;43.210;27.914;2023-06-19T00:39:25;12.20;;;9.98;;
63203;SDS011;49297;43.210;27.914;2023-06-19T00:41:52;12.50;;;9.40;;
63203;SDS011;49297;43.210;27.914;2023-06-19T00:44:19;11.57;;;9.05;;
63203;SDS011;49297;43.210;27.914;2023-06-19T00:49:20;14.90;;;12.73;;
63203;SDS011;49297;43.210;27.914;2023-06-19T00:51:48;12.77;;;8.90;;
63203;SDS011;49297;43.210;27.914;2023-06-19T00:54:14;10.30;;;9.25;;
63203;SDS011;49297;43.210;27.914;2023-06-19T00:56:45;8.60;;;7.70;;
63203;SDS011;49297;43.210;27.914;2023-06-19T00:59:14;8.57;;;7.68;;
63203;SDS011;49297;43.210;27.914;2023-06-19T01:01:43;9.10;;;7.38;;
63203;SDS011;49297;43.210;27.914;2023-06-19T01:04:09;10.53;;;6.10;;
63203;SDS011;49297;43.210;27.914;2023-06-19T01:06:48;8.23;;;5.55;;
63203;SDS011;49297;43.210;27.914;2023-06-19T01:09:23;9.20;;;4.63;;
63203;SDS011;49297;43.210;27.914;2023-06-19T01:11:57;7.80;;;5.30;;
63203;SDS011;49297;43.210;27.914;2023-06-19T01:14:38;8.25;;;5.20;;
63203;SDS011;49297;43.210;27.914;2023-06-19T01:17:12;6.57;;;4.32;;
63203;SDS011;49297;43.210;27.914;2023-06-19T01:19:40;9.82;;;4.82;;
63203;SDS011;49297;43.210;27.914;2023-06-19T01:22:07;4.73;;;3.90;;
63203;SDS011;49297;43.210;27.914;2023-06-19T01:24:34;5.30;;;3.73;;
63203;SDS011;49297;43.210;27.914;2023-06-19T01:27:00;6.57;;;3.72;;
63203;SDS011;49297;43.210;27.914;2023-06-19T01:29:28;4.60;;;4.13;;
63203;SDS011;49297;43.210;27.914;2023-06-19T01:31:57;5.28;;;3.80;;
63203;SDS011;49297;43.210;27.914;2023-06-19T01:34:29;8.45;;;4.43;;
63203;SDS011;49297;43.210;27.914;2023-06-19T01:36:57;4.70;;;3.87;;
63203;SDS011;49297;43.210;27.914;2023-06-19T01:39:25;5.95;;;4.05;;
63203;SDS011;49297;43.210;27.914;2023-06-19T01:41:58;6.15;;;4.25;;
63203;SDS011;49297;43.210;27.914;2023-06-19T01:44:27;7.07;;;4.77;;
63203;SDS011;49297;43.210;27.914;2023-06-19T01:46:55;6.97;;;3.90;;
63203;SDS011;49297;43.210;27.914;2023-06-19T01:49:21;9.45;;;4.30;;
63203;SDS011;49297;43.210;27.914;2023-06-19T01:51:46;7.40;;;4.07;;
63203;SDS011;49297;43.210;27.914;2023-06-19T01:54:12;5.22;;;3.92;;
63203;SDS011;49297;43.210;27.914;2023-06-19T01:56:39;7.85;;;4.50;;
63203;SDS011;49297;43.210;27.914;2023-06-19T01:59:07;10.20;;;5.35;;
63203;SDS011;49297;43.210;27.914;2023-06-19T02:01:34;7.32;;;4.28;;
63203;SDS011;49297;43.210;27.914;2023-06-19T02:04:01;5.20;;;4.28;;
63203;SDS011;49297;43.210;27.914;2023-06-19T02:06:29;6.78;;;4.45;;
63203;SDS011;49297;43.210;27.914;2023-06-19T02:08:55;6.63;;;4.72;;
63203;SDS011;49297;43.210;27.914;2023-06-19T02:11:21;6.80;;;4.77;;
63203;SDS011;49297;43.210;27.914;2023-06-19T02:13:49;4.93;;;4.38;;
63203;SDS011;49297;43.210;27.914;2023-06-19T02:16:15;7.45;;;6.30;;
63203;SDS011;49297;43.210;27.914;2023-06-19T02:18:41;6.38;;;5.78;;
63203;SDS011;49297;43.210;27.914;2023-06-19T02:21:13;11.20;;;7.10;;
63203;SDS011;49297;43.210;27.914;2023-06-19T02:23:39;6.63;;;5.72;;
63203;SDS011;49297;43.210;27.914;2023-06-19T02:26:05;9.70;;;5.80;;
63203;SDS011;49297;43.210;27.914;2023-06-19T02:28:36;6.70;;;5.35;;
63203;SDS011;49297;43.210;27.914;2023-06-19T02:31:02;6.30;;;4.77;;
63203;SDS011;49297;43.210;27.914;2023-06-19T02:33:28;6.80;;;5.10;;
63203;SDS011;49297;43.210;27.914;2023-06-19T02:35:55;7.28;;;4.95;;
63203;SDS011;49297;43.210;27.914;2023-06-19T02:38:27;6.75;;;4.88;;
63203;SDS011;49297;43.210;27.914;2023-06-19T02:40:55;7.18;;;5.40;;
63203;SDS011;49297;43.210;27.914;2023-06-19T02:43:23;5.60;;;5.10;;
63203;SDS011;49297;43.210;27.914;2023-06-19T02:45:49;5.75;;;5.25;;
63203;SDS011;49297;43.210;27.914;2023-06-19T02:48:15;9.07;;;5.32;;
63203;SDS011;49297;43.210;27.914;2023-06-19T02:50:47;12.80;;;5.68;;
63203;SDS011;49297;43.210;27.914;2023-06-19T02:53:13;6.93;;;5.90;;
63203;SDS011;49297;43.210;27.914;2023-06-19T02:55:39;8.30;;;6.03;;
63203;SDS011;49297;43.210;27.914;2023-06-19T02:58:05;8.00;;;5.80;;
63203;SDS011;49297;43.210;27.914;2023-06-19T03:00:31;7.55;;;5.53;;
63203;SDS011;49297;43.210;27.914;2023-06-19T03:02:59;9.38;;;6.75;;
63203;SDS011;49297;43.210;27.914;2023-06-19T03:05:25;8.80;;;5.90;;
63203;SDS011;49297;43.210;27.914;2023-06-19T03:07:52;6.13;;;5.53;;
63203;SDS011;49297;43.210;27.914;2023-06-19T03:10:18;5.82;;;5.32;;
63203;SDS011;49297;43.210;27.914;2023-06-19T03:12:45;9.68;;;6.07;;
63203;SDS011;49297;43.210;27.914;2023-06-19T03:15:11;14.57;;;5.95;;
63203;SDS011;49297;43.210;27.914;2023-06-19T03:17:37;6.47;;;5.45;;
63203;SDS011;49297;43.210;27.914;2023-06-19T03:20:04;11.17;;;6.77;;
63203;SDS011;49297;43.210;27.914;2023-06-19T03:22:32;11.20;;;5.50;;
63203;SDS011;49297;43.210;27.914;2023-06-19T03:24:59;11.52;;;6.82;;
63203;SDS011;49297;43.210;27.914;2023-06-19T03:27:25;7.30;;;6.70;;
63203;SDS011;49297;43.210;27.914;2023-06-19T03:29:53;8.50;;;7.70;;
63203;SDS011;49297;43.210;27.914;2023-06-19T03:32:18;10.13;;;7.05;;
63203;SDS011;49297;43.210;27.914;2023-06-19T03:34:45;7.97;;;7.15;;
63203;SDS011;49297;43.210;27.914;2023-06-19T03:37:11;10.02;;;7.97;;
63203;SDS011;49297;43.210;27.914;2023-06-19T03:39:44;14.02;;;8.45;;
63203;SDS011;49297;43.210;27.914;2023-06-19T03:42:10;8.75;;;7.93;;
63203;SDS011;49297;43.210;27.914;2023-06-19T03:44:36;8.93;;;8.10;;
63203;SDS011;49297;43.210;27.914;2023-06-19T03:47:03;9.20;;;8.30;;
63203;SDS011;49297;43.210;27.914;2023-06-19T03:49:30;8.98;;;8.07;;
63203;SDS011;49297;43.210;27.914;2023-06-19T03:51:56;9.65;;;8.57;;
63203;SDS011;49297;43.210;27.914;2023-06-19T03:54:22;11.95;;;9.00;;
63203;SDS011;49297;43.210;27.914;2023-06-19T03:56:48;8.75;;;7.95;;
63203;SDS011;49297;43.210;27.914;2023-06-19T03:59:14;15.52;;;9.38;;
63203;SDS011;49297;43.210;27.914;2023-06-19T04:01:40;11.93;;;8.63;;
63203;SDS011;49297;43.210;27.914;2023-06-19T04:04:08;9.38;;;8.00;;
63203;SDS011;49297;43.210;27.914;2023-06-19T04:06:34;9.57;;;8.00;;
63203;SDS011;49297;43.210;27.914;2023-06-19T04:09:02;11.07;;;9.02;;
63203;SDS011;49297;43.210;27.914;2023-06-19T04:11:31;8.57;;;7.75;;
63203;SDS011;49297;43.210;27.914;2023-06-19T04:13:58;13.15;;;7.40;;
63203;SDS011;49297;43.210;27.914;2023-06-19T04:16:30;12.10;;;8.73;;
63203;SDS011;49297;43.210;27.914;2023-06-19T04:18:56;11.20;;;9.90;;
63203;SDS011;49297;43.210;27.914;2023-06-19T04:21:23;8.68;;;7.57;;
63203;SDS011;49297;43.210;27.914;2023-06-19T04:23:50;10.50;;;9.57;;
63203;SDS011;49297;43.210;27.914;2023-06-19T04:26:16;7.60;;;6.75;;
63203;SDS011;49297;43.210;27.914;2023-06-19T04:28:44;10.23;;;8.63;;
63203;SDS011;49297;43.210;27.914;2023-06-19T04:31:11;10.10;;;8.60;;
63203;SDS011;49297;43.210;27.914;2023-06-19T04:36:07;10.57;;;8.40;;
63203;SDS011;49297;43.210;27.914;2023-06-19T04:38:35;8.27;;;7.47;;
63203;SDS011;49297;43.210;27.914;2023-06-19T04:41:01;9.55;;;7.38;;
63203;SDS011;49297;43.210;27.914;2023-06-19T04:43:27;10.18;;;7.30;;
63203;SDS011;49297;43.210;27.914;2023-06-19T04:45:54;8.33;;;6.60;;
63203;SDS011;49297;43.210;27.914;2023-06-19T04:48:21;8.18;;;7.07;;
63203;SDS011;49297;43.210;27.914;2023-06-19T04:50:51;11.15;;;6.80;;
63203;SDS011;49297;43.210;27.914;2023-06-19T04:53:18;21.23;;;6.60;;
63203;SDS011;49297;43.210;27.914;2023-06-19T04:55:44;8.25;;;6.10;;
63203;SDS011;49297;43.210;27.914;2023-06-19T04:58:11;9.07;;;7.05;;
63203;SDS011;49297;43.210;27.914;2023-06-19T05:00:37;6.50;;;5.85;;
63203;SDS011;49297;43.210;27.914;2023-06-19T05:03:03;7.35;;;5.97;;
63203;SDS011;49297;43.210;27.914;2023-06-19T05:05:29;13.93;;;6.38;;
63203;SDS011;49297;43.210;27.914;2023-06-19T05:07:55;9.80;;;5.50;;
63203;SDS011;49297;43.210;27.914;2023-06-19T05:10:21;7.93;;;6.32;;
63203;SDS011;49297;43.210;27.914;2023-06-19T05:12:47;16.33;;;6.23;;
63203;SDS011;49297;43.210;27.914;2023-06-19T05:15:14;9.02;;;5.55;;
63203;SDS011;49297;43.210;27.914;2023-06-19T05:17:40;10.75;;;4.85;;
63203;SDS011;49297;43.210;27.914;2023-06-19T05:20:06;6.70;;;5.10;;
63203;SDS011;49297;43.210;27.914;2023-06-19T05:22:33;6.80;;;4.87;;
63203;SDS011;49297;43.210;27.914;2023-06-19T05:25:00;15.80;;;5.25;;
63203;SDS011;49297;43.210;27.914;2023-06-19T05:27:26;14.38;;;5.50;;
63203;SDS011;49297;43.210;27.914;2023-06-19T05:29:52;4.43;;;4.03;;
63203;SDS011;49297;43.210;27.914;2023-06-19T05:32:18;12.00;;;4.97;;
63203;SDS011;49297;43.210;27.914;2023-06-19T05:34:44;10.27;;;3.92;;
63203;SDS011;49297;43.210;27.914;2023-06-19T05:37:10;5.57;;;4.43;;
63203;SDS011;49297;43.210;27.914;2023-06-19T05:39:36;4.00;;;3.63;;
63203;SDS011;49297;43.210;27.914;2023-06-19T05:42:02;13.65;;;5.32;;
63203;SDS011;49297;43.210;27.914;2023-06-19T05:44:28;5.43;;;3.40;;
63203;SDS011;49297;43.210;27.914;2023-06-19T05:49:31;4.18;;;3.60;;
63203;SDS011;49297;43.210;27.914;2023-06-19T05:51:57;5.93;;;2.80;;
63203;SDS011;49297;43.210;27.914;2023-06-19T05:54:25;3.30;;;3.00;;
63203;SDS011;49297;43.210;27.914;2023-06-19T05:56:52;9.25;;;4.72;;
63203;SDS011;49297;43.210;27.914;2023-06-19T05:59:18;4.28;;;3.72;;
63203;SDS011;49297;43.210;27.914;2023-06-19T06:01:44;6.95;;;4.93;;
63203;SDS011;49297;43.210;27.914;2023-06-19T06:04:09;5.27;;;3.73;;
63203;SDS011;49297;43.210;27.914;2023-06-19T06:06:36;8.95;;;5.05;;
63203;SDS011;49297;43.210;27.914;2023-06-19T06:09:03;7.85;;;4.00;;
63203;SDS011;49297;43.210;27.914;2023-06-19T06:11:30;5.82;;;3.00;;
63203;SDS011;49297;43.210;27.914;2023-06-19T06:13:56;14.53;;;3.40;;
63203;SDS011;49297;43.210;27.914;2023-06-19T06:16:21;4.60;;;2.78;;
63203;SDS011;49297;43.210;27.914;2023-06-19T06:18:47;5.15;;;2.42;;
63203;SDS011;49297;43.210;27.914;2023-06-19T06:21:13;4.45;;;2.45;;
63203;SDS011;49297;43.210;27.914;2023-06-19T06:23:42;5.68;;;3.42;;
63203;SDS011;49297;43.210;27.914;2023-06-19T06:26:10;8.50;;;2.65;;
63203;SDS011;49297;43.210;27.914;2023-06-19T06:28:36;7.72;;;3.90;;
63203;SDS011;49297;43.210;27.914;2023-06-19T06:31:04;6.60;;;2.95;;
63203;SDS011;49297;43.210;27.914;2023-06-19T06:33:30;5.22;;;2.70;;
63203;SDS011;49297;43.210;27.914;2023-06-19T06:35:58;18.67;;;5.65;;
63203;SDS011;49297;43.210;27.914;2023-06-19T06:38:25;6.60;;;2.58;;
63203;SDS011;49297;43.210;27.914;2023-06-19T06:40:53;5.22;;;3.25;;
63203;SDS011;49297;43.210;27.914;2023-06-19T06:43:20;7.53;;;3.17;;
63203;SDS011;49297;43.210;27.914;2023-06-19T06:45:49;11.38;;;3.17;;
63203;SDS011;49297;43.210;27.914;2023-06-19T06:48:15;11.57;;;3.08;;
63203;SDS011;49297;43.210;27.914;2023-06-19T06:50:42;15.05;;;3.13;;
63203;SDS011;49297;43.210;27.914;2023-06-19T06:53:08;6.45;;;2.60;;
63203;SDS011;49297;43.210;27.914;2023-06-19T06:55:34;4.60;;;2.78;;
63203;SDS011;49297;43.210;27.914;2023-06-19T06:58:01;3.77;;;2.57;;
63203;SDS011;49297;43.210;27.914;2023-06-19T07:00:28;4.03;;;2.60;;
63203;SDS011;49297;43.210;27.914;2023-06-19T07:02:54;4.10;;;3.17;;
63203;SDS011;49297;43.210;27.914;2023-06-19T07:05:20;6.05;;;3.25;;
63203;SDS011;49297;43.210;27.914;2023-06-19T07:07:55;5.75;;;3.20;;
63203;SDS011;49297;43.210;27.914;2023-06-19T07:10:20;5.03;;;2.85;;
63203;SDS011;49297;43.210;27.914;2023-06-19T07:12:47;3.65;;;2.72;;
63203;SDS011;49297;43.210;27.914;2023-06-19T07:15:15;6.50;;;3.35;;
63203;SDS011;49297;43.210;27.914;2023-06-19T07:17:48;7.57;;;2.73;;
63203;SDS011;49297;43.210;27.914;2023-06-19T07:20:15;16.48;;;3.13;;
63203;SDS011;49297;43.210;27.914;2023-06-19T07:22:42;3.92;;;2.75;;
63203;SDS011;49297;43.210;27.914;2023-06-19T07:25:09;5.03;;;2.47;;
63203;SDS011;49297;43.210;27.914;2023-06-19T07:27:36;3.35;;;2.17;;
63203;SDS011;49297;43.210;27.914;2023-06-19T07:30:02;16.67;;;2.40;;
63203;SDS011;49297;43.210;27.914;2023-06-19T07:32:31;3.92;;;2.80;;
63203;SDS011;49297;43.210;27.914;2023-06-19T07:34:57;5.72;;;2.38;;
63203;SDS011;49297;43.210;27.914;2023-06-19T07:37:24;5.15;;;2.70;;
63203;SDS011;49297;43.210;27.914;2023-06-19T07:39:50;4.40;;;2.30;;
63203;SDS011;49297;43.210;27.914;2023-06-19T07:42:18;4.20;;;2.85;;
63203;SDS011;49297;43.210;27.914;2023-06-19T07:44:46;8.27;;;2.53;;
63203;SDS011;49297;43.210;27.914;2023-06-19T07:47:13;6.93;;;3.08;;
63203;SDS011;49297;43.210;27.914;2023-06-19T07:49:40;3.38;;;2.28;;
63203;SDS011;49297;43.210;27.914;2023-06-19T07:52:07;2.75;;;2.33;;
63203;SDS011;49297;43.210;27.914;2023-06-19T07:54:35;4.07;;;2.70;;
63203;SDS011;49297;43.210;27.914;2023-06-19T07:57:01;4.15;;;2.88;;
63203;SDS011;49297;43.210;27.914;2023-06-19T07:59:34;3.03;;;2.70;;
63203;SDS011;49297;43.210;27.914;2023-06-19T08:02:00;3.43;;;2.30;;
63203;SDS011;49297;43.210;27.914;2023-06-19T08:04:26;3.17;;;2.77;;
63203;SDS011;49297;43.210;27.914;2023-06-19T08:06:53;2.53;;;2.33;;
63203;SDS011;49297;43.210;27.914;2023-06-19T08:09:18;3.85;;;3.25;;
63203;SDS011;49297;43.210;27.914;2023-06-19T08:11:44;5.60;;;3.35;;
63203;SDS011;49297;43.210;27.914;2023-06-19T08:14:10;3.67;;;3.03;;
63203;SDS011;49297;43.210;27.914;2023-06-19T08:16:36;3.53;;;2.92;;
63203;SDS011;49297;43.210;27.914;2023-06-19T08:19:02;5.27;;;4.20;;
63203;SDS011;49297;43.210;27.914;2023-06-19T08:21:28;5.97;;;3.83;;
63203;SDS011;49297;43.210;27.914;2023-06-19T08:23:54;8.80;;;4.78;;
63203;SDS011;49297;43.210;27.914;2023-06-19T08:26:20;4.03;;;3.35;;
63203;SDS011;49297;43.210;27.914;2023-06-19T08:28:46;4.18;;;3.30;;
63203;SDS011;49297;43.210;27.914;2023-06-19T08:31:14;6.07;;;3.05;;
63203;SDS011;49297;43.210;27.914;2023-06-19T08:33:46;3.97;;;2.83;;
63203;SDS011;49297;43.210;27.914;2023-06-19T08:36:14;5.85;;;3.85;;
63203;SDS011;49297;43.210;27.914;2023-06-19T08:38:40;3.72;;;3.03;;
63203;SDS011;49297;43.210;27.914;2023-06-19T08:41:06;6.07;;;3.80;;
63203;SDS011;49297;43.210;27.914;2023-06-19T08:43:32;6.28;;;4.47;;
63203;SDS011;49297;43.210;27.914;2023-06-19T08:46:17;6.85;;;3.42;;
63203;SDS011;49297;43.210;27.914;2023-06-19T08:48:43;5.17;;;3.43;;
63203;SDS011;49297;43.210;27.914;2023-06-19T08:51:10;3.30;;;2.88;;
63203;SDS011;49297;43.210;27.914;2023-06-19T08:53:43;3.35;;;2.90;;
63203;SDS011;49297;43.210;27.914;2023-06-19T08:56:17;4.80;;;3.33;;
63203;SDS011;49297;43.210;27.914;2023-06-19T08:58:44;4.65;;;2.90;;
63203;SDS011;49297;43.210;27.914;2023-06-19T09:01:19;5.63;;;3.10;;
63203;SDS011;49297;43.210;27.914;2023-06-19T09:03:45;8.93;;;3.27;;
63203;SDS011;49297;43.210;27.914;2023-06-19T09:06:15;6.80;;;3.33;;
63203;SDS011;49297;43.210;27.914;2023-06-19T09:08:41;7.07;;;4.05;;
63203;SDS011;49297;43.210;27.914;2023-06-19T09:11:07;3.80;;;3.33;;
63203;SDS011;49297;43.210;27.914;2023-06-19T09:13:33;6.63;;;3.65;;
63203;SDS011;49297;43.210;27.914;2023-06-19T09:16:02;5.43;;;3.28;;
63203;SDS011;49297;43.210;27.914;2023-06-19T09:18:31;4.73;;;3.27;;
63203;SDS011;49297;43.210;27.914;2023-06-19T09:21:14;4.03;;;3.20;;
63203;SDS011;49297;43.210;27.914;2023-06-19T09:23:45;9.82;;;3.60;;
63203;SDS011;49297;43.210;27.914;2023-06-19T09:26:13;7.80;;;4.25;;
63203;SDS011;49297;43.210;27.914;2023-06-19T09:28:41;3.72;;;2.90;;
63203;SDS011;49297;43.210;27.914;2023-06-19T09:31:10;5.25;;;3.17;;
63203;SDS011;49297;43.210;27.914;2023-06-19T09:33:38;5.13;;;3.15;;
63203;SDS011;49297;43.210;27.914;2023-06-19T09:36:06;4.23;;;3.23;;
63203;SDS011;49297;43.210;27.914;2023-06-19T09:38:34;7.00;;;3.65;;
63203;SDS011;49297;43.210;27.914;2023-06-19T09:41:06;5.75;;;3.00;;
63203;SDS011;49297;43.210;27.914;2023-06-19T09:43:42;3.90;;;3.03;;
63203;SDS011;49297;43.210;27.914;2023-06-19T09:46:10;9.02;;;4.50;;
63203;SDS011;49297;43.210;27.914;2023-06-19T09:48:40;3.45;;;3.15;;
63203;SDS011;49297;43.210;27.914;2023-06-19T09:51:18;4.50;;;2.83;;
63203;SDS011;49297;43.210;27.914;2023-06-19T09:53:45;32.50;;;8.25;;
63203;SDS011;49297;43.210;27.914;2023-06-19T09:56:13;7.53;;;3.78;;
63203;SDS011;49297;43.210;27.914;2023-06-19T09:58:42;5.13;;;3.97;;
63203;SDS011;49297;43.210;27.914;2023-06-19T10:01:10;9.07;;;3.67;;
63203;SDS011;49297;43.210;27.914;2023-06-19T10:03:39;5.90;;;3.65;;
63203;SDS011;49297;43.210;27.914;2023-06-19T10:06:06;6.43;;;3.15;;
63203;SDS011;49297;43.210;27.914;2023-06-19T10:08:38;7.10;;;4.00;;
63203;SDS011;49297;43.210;27.914;2023-06-19T10:11:05;6.30;;;3.63;;
63203;SDS011;49297;43.210;27.914;2023-06-19T10:13:32;5.65;;;2.80;;
63203;SDS011;49297;43.210;27.914;2023-06-19T10:16:01;4.35;;;3.20;;
63203;SDS011;49297;43.210;27.914;2023-06-19T10:18:28;4.50;;;2.55;;
63203;SDS011;49297;43.210;27.914;2023-06-19T10:20:54;3.17;;;2.50;;
63203;SDS011;49297;43.210;27.914;2023-06-19T10:23:22;2.63;;;2.17;;
63203;SDS011;49297;43.210;27.914;2023-06-19T10:28:28;3.15;;;2.85;;
63203;SDS011;49297;43.210;27.914;2023-06-19T10:31:02;2.80;;;2.50;;
63203;SDS011;49297;43.210;27.914;2023-06-19T10:33:29;3.80;;;2.22;;
63203;SDS011;49297;43.210;27.914;2023-06-19T10:35:59;9.83;;;3.67;;
63203;SDS011;49297;43.210;27.914;2023-06-19T10:38:28;5.47;;;2.95;;
63203;SDS011;49297;43.210;27.914;2023-06-19T10:40:54;3.05;;;2.55;;
63203;SDS011;49297;43.210;27.914;2023-06-19T10:43:22;2.97;;;2.38;;
63203;SDS011;49297;43.210;27.914;2023-06-19T10:45:51;3.83;;;2.67;;
63203;SDS011;49297;43.210;27.914;2023-06-19T10:48:21;8.80;;;3.63;;
63203;SDS011;49297;43.210;27.914;2023-06-19T10:50:50;3.60;;;2.78;;
63203;SDS011;49297;43.210;27.914;2023-06-19T10:53:26;4.85;;;2.50;;
63203;SDS011;49297;43.210;27.914;2023-06-19T10:55:57;8.93;;;3.35;;
63203;SDS011;49297;43.210;27.914;2023-06-19T10:58:24;3.10;;;2.13;;
63203;SDS011;49297;43.210;27.914;2023-06-19T11:00:51;2.78;;;2.35;;
63203;SDS011;49297;43.210;27.914;2023-06-19T11:03:18;4.40;;;2.67;;
63203;SDS011;49297;43.210;27.914;2023-06-19T11:05:48;5.20;;;2.65;;
63203;SDS011;49297;43.210;27.914;2023-06-19T11:08:20;4.93;;;2.30;;
63203;SDS011;49297;43.210;27.914;2023-06-19T11:10:47;9.98;;;3.58;;
63203;SDS011;49297;43.210;27.914;2023-06-19T11:13:21;4.38;;;2.47;;
63203;SDS011;49297;43.210;27.914;2023-06-19T11:15:47;3.08;;;2.67;;
63203;SDS011;49297;43.210;27.914;2023-06-19T11:18:17;5.28;;;2.80;;
63203;SDS011;49297;43.210;27.914;2023-06-19T11:20:51;2.90;;;2.47;;
63203;SDS011;49297;43.210;27.914;2023-06-19T11:23:27;3.10;;;2.37;;
63203;SDS011;49297;43.210;27.914;2023-06-19T11:25:54;3.75;;;2.50;;
63203;SDS011;49297;43.210;27.914;2023-06-19T11:28:30;2.63;;;2.23;;
63203;SDS011;49297;43.210;27.914;2023-06-19T11:31:00;2.47;;;2.28;;
63203;SDS011;49297;43.210;27.914;2023-06-19T11:33:28;2.72;;;2.30;;
63203;SDS011;49297;43.210;27.914;2023-06-19T11:35:54;2.90;;;2.67;;
63203;SDS011;49297;43.210;27.914;2023-06-19T11:38:26;3.55;;;2.60;;
63203;SDS011;49297;43.210;27.914;2023-06-19T11:43:25;3.00;;;2.55;;
63203;SDS011;49297;43.210;27.914;2023-06-19T11:45:53;3.95;;;2.60;;
63203;SDS011;49297;43.210;27.914;2023-06-19T11:48:25;5.43;;;2.42;;
63203;SDS011;49297;43.210;27.914;2023-06-19T11:50:53;2.20;;;2.00;;
63203;SDS011;49297;43.210;27.914;2023-06-19T11:53:21;3.55;;;2.60;;
63203;SDS011;49297;43.210;27.914;2023-06-19T11:55:48;2.92;;;2.72;;
63203;SDS011;49297;43.210;27.914;2023-06-19T11:58:15;3.28;;;2.97;;
63203;SDS011;49297;43.210;27.914;2023-06-19T12:00:41;5.20;;;2.87;;
63203;SDS011;49297;43.210;27.914;2023-06-19T12:03:08;2.53;;;2.15;;
63203;SDS011;49297;43.210;27.914;2023-06-19T12:05:36;5.13;;;3.33;;
63203;SDS011;49297;43.210;27.914;2023-06-19T12:08:04;2.97;;;2.40;;
63203;SDS011;49297;43.210;27.914;2023-06-19T12:10:32;2.90;;;2.65;;
63203;SDS011;49297;43.210;27.914;2023-06-19T12:13:02;3.25;;;2.88;;
63203;SDS011;49297;43.210;27.914;2023-06-19T12:15:27;3.30;;;2.80;;
63203;SDS011;49297;43.210;27.914;2023-06-19T12:17:53;3.47;;;3.08;;
63203;SDS011;49297;43.210;27.914;2023-06-19T12:20:20;3.28;;;2.90;;
63203;SDS011;49297;43.210;27.914;2023-06-19T12:22:48;3.20;;;2.72;;
63203;SDS011;49297;43.210;27.914;2023-06-19T12:25:16;2.47;;;2.28;;
63203;SDS011;49297;43.210;27.914;2023-06-19T12:27:42;3.97;;;2.67;;
63203;SDS011;49297;43.210;27.914;2023-06-19T12:30:08;7.90;;;3.05;;
63203;SDS011;49297;43.210;27.914;2023-06-19T12:32:34;5.07;;;2.90;;
63203;SDS011;49297;43.210;27.914;2023-06-19T12:35:00;2.97;;;2.60;;
63203;SDS011;49297;43.210;27.914;2023-06-19T12:37:26;4.03;;;2.70;;
63203;SDS011;49297;43.210;27.914;2023-06-19T12:39:52;2.50;;;2.30;;
63203;SDS011;49297;43.210;27.914;2023-06-19T12:42:18;2.70;;;2.45;;
63203;SDS011;49297;43.210;27.914;2023-06-19T12:44:44;4.05;;;2.70;;
63203;SDS011;49297;43.210;27.914;2023-06-19T12:47:10;4.68;;;2.60;;
63203;SDS011;49297;43.210;27.914;2023-06-19T12:49:36;3.20;;;2.33;;
63203;SDS011;49297;43.210;27.914;2023-06-19T12:52:02;3.22;;;2.45;;
63203;SDS011;49297;43.210;27.914;2023-06-19T12:54:29;2.47;;;2.15;;
63203;SDS011;49297;43.210;27.914;2023-06-19T12:56:56;2.83;;;2.60;;
63203;SDS011;49297;43.210;27.914;2023-06-19T12:59:24;3.40;;;2.40;;
63203;SDS011;49297;43.210;27.914;2023-06-19T13:01:51;3.13;;;2.53;;
63203;SDS011;49297;43.210;27.914;2023-06-19T13:04:17;6.05;;;2.80;;
63203;SDS011;49297;43.210;27.914;2023-06-19T13:06:43;2.53;;;2.33;;
63203;SDS011;49297;43.210;27.914;2023-06-19T13:09:09;2.97;;;2.33;;
63203;SDS011;49297;43.210;27.914;2023-06-19T13:11:35;2.83;;;2.10;;
63203;SDS011;49297;43.210;27.914;2023-06-19T13:14:01;2.40;;;2.00;;
63203;SDS011;49297;43.210;27.914;2023-06-19T13:16:30;3.60;;;2.78;;
63203;SDS011;49297;43.210;27.914;2023-06-19T13:18:57;9.43;;;3.63;;
63203;SDS011;49297;43.210;27.914;2023-06-19T13:21:23;6.05;;;4.05;;
63203;SDS011;49297;43.210;27.914;2023-06-19T13:23:49;6.15;;;3.67;;
63203;SDS011;49297;43.210;27.914;2023-06-19T13:26:15;2.60;;;2.40;;
63203;SDS011;49297;43.210;27.914;2023-06-19T13:28:41;5.07;;;3.22;;
63203;SDS011;49297;43.210;27.914;2023-06-19T13:31:06;4.45;;;2.75;;
63203;SDS011;49297;43.210;27.914;2023-06-19T13:33:32;3.15;;;2.85;;
63203;SDS011;49297;43.210;27.914;2023-06-19T13:35:58;5.40;;;2.70;;
63203;SDS011;49297;43.210;27.914;2023-06-19T13:38:25;3.38;;;3.08;;
63203;SDS011;49297;43.210;27.914;2023-06-19T13:40:51;3.30;;;2.67;;
63203;SDS011;49297;43.210;27.914;2023-06-19T13:43:17;4.13;;;3.25;;
63203;SDS011;49297;43.210;27.914;2023-06-19T13:45:46;2.90;;;2.70;;
63203;SDS011;49297;43.210;27.914;2023-06-19T13:48:12;3.37;;;3.03;;
63203;SDS011;49297;43.210;27.914;2023-06-19T13:50:39;5.97;;;3.10;;
63203;SDS011;49297;43.210;27.914;2023-06-19T13:53:06;4.22;;;2.90;;
63203;SDS011;49297;43.210;27.914;2023-06-19T13:55:33;3.20;;;2.90;;
63203;SDS011;49297;43.210;27.914;2023-06-19T13:58:01;4.50;;;2.88;;
63203;SDS011;49297;43.210;27.914;2023-06-19T14:00:28;4.50;;;3.30;;
63203;SDS011;49297;43.210;27.914;2023-06-19T14:02:54;5.57;;;3.25;;
63203;SDS011;49297;43.210;27.914;2023-06-19T14:05:20;4.85;;;3.20;;
63203;SDS011;49297;43.210;27.914;2023-06-19T14:07:46;5.65;;;3.50;;
63203;SDS011;49297;43.210;27.914;2023-06-19T14:10:12;6.40;;;3.60;;
63203;SDS011;49297;43.210;27.914;2023-06-19T14:12:39;4.50;;;3.33;;
63203;SDS011;49297;43.210;27.914;2023-06-19T14:15:07;3.42;;;3.13;;
63203;SDS011;49297;43.210;27.914;2023-06-19T14:17:34;4.88;;;3.50;;
63203;SDS011;49297;43.210;27.914;2023-06-19T14:20:01;6.75;;;3.85;;
63203;SDS011;49297;43.210;27.914;2023-06-19T14:22:27;4.10;;;3.67;;
63203;SDS011;49297;43.210;27.914;2023-06-19T14:24:53;6.90;;;4.20;;
63203;SDS011;49297;43.210;27.914;2023-06-19T14:27:27;5.57;;;3.47;;
63203;SDS011;49297;43.210;27.914;2023-06-19T14:29:54;6.20;;;3.92;;
63203;SDS011;49297;43.210;27.914;2023-06-19T14:32:21;6.13;;;3.83;;
63203;SDS011;49297;43.210;27.914;2023-06-19T14:34:49;3.90;;;3.50;;
63203;SDS011;49297;43.210;27.914;2023-06-19T14:37:15;5.50;;;3.90;;
63203;SDS011;49297;43.210;27.914;2023-06-19T14:39:42;5.70;;;3.80;;
63203;SDS011;49297;43.210;27.914;2023-06-19T14:42:08;4.70;;;3.55;;
63203;SDS011;49297;43.210;27.914;2023-06-19T14:44:35;4.30;;;3.80;;
63203;SDS011;49297;43.210;27.914;2023-06-19T14:47:03;7.77;;;3.47;;